createdAt,value
2018-11-29T00:02:20.461Z,16.57
2018-11-29T00:04:48.924Z,17.70
2018-11-29T00:07:17.383Z,15.17
2018-11-29T00:09:45.849Z,17.17
2018-11-29T00:12:14.313Z,18.27
2018-11-29T00:14:42.768Z,18.03
2018-11-29T00:17:11.236Z,20.03
2018-11-29T00:19:39.704Z,17.70
2018-11-29T00:22:08.151Z,18.13
2018-11-29T00:24:36.601Z,16.63
2018-11-29T00:27:05.110Z,17.70
2018-11-29T00:29:33.579Z,16.90
2018-11-29T00:32:02.036Z,16.80
2018-11-29T00:34:30.513Z,17.63
2018-11-29T00:36:58.964Z,17.30
2018-11-29T00:39:27.418Z,18.83
2018-11-29T00:41:55.889Z,15.83
2018-11-29T00:44:24.589Z,18.10
2018-11-29T00:46:53.132Z,18.40
2018-11-29T00:49:21.608Z,18.00
2018-11-29T00:51:50.141Z,19.70
2018-11-29T00:54:18.643Z,16.33
2018-11-29T00:56:47.117Z,17.33
2018-11-29T00:59:15.809Z,18.07
2018-11-29T01:01:49.985Z,17.90
2018-11-29T01:04:18.533Z,18.17
2018-11-29T01:06:46.996Z,17.47
2018-11-29T01:09:15.477Z,19.60
2018-11-29T01:11:43.981Z,16.77
2018-11-29T01:14:12.425Z,17.63
2018-11-29T01:16:40.897Z,17.30
2018-11-29T01:19:09.340Z,14.87
2018-11-29T01:21:37.957Z,18.83
2018-11-29T01:24:06.424Z,17.87
2018-11-29T01:26:34.894Z,17.83
2018-11-29T01:29:03.339Z,16.03
2018-11-29T01:31:31.923Z,17.03
2018-11-29T01:34:00.373Z,18.17
2018-11-29T01:36:28.828Z,18.57
2018-11-29T01:38:57.552Z,19.03
2018-11-29T01:41:26.088Z,19.13
2018-11-29T01:43:54.536Z,17.03
2018-11-29T01:46:22.998Z,17.07
2018-11-29T01:48:51.496Z,16.47
2018-11-29T01:51:19.948Z,18.87
2018-11-29T01:53:48.677Z,19.33
2018-11-29T01:56:17.211Z,16.40
2018-11-29T01:58:45.658Z,18.20
2018-11-29T02:01:14.135Z,18.00
2018-11-29T02:03:42.580Z,17.93
2018-11-29T02:06:11.020Z,16.53
2018-11-29T02:08:39.493Z,17.70
2018-11-29T02:11:13.031Z,17.17
2018-11-29T02:13:41.758Z,18.27
2018-11-29T02:16:10.296Z,13.63
2018-11-29T02:18:38.744Z,18.20
2018-11-29T02:21:07.440Z,18.00
2018-11-29T02:23:35.899Z,17.40
2018-11-29T02:26:04.501Z,16.87
2018-11-29T02:28:32.978Z,18.87
2018-11-29T02:31:01.698Z,17.17
2018-11-29T02:33:30.273Z,17.20
2018-11-29T02:35:58.754Z,18.43
2018-11-29T02:38:27.203Z,19.03
2018-11-29T02:40:55.667Z,18.20
2018-11-29T02:43:24.136Z,19.03
2018-11-29T02:45:52.592Z,19.03
2018-11-29T02:48:21.041Z,17.50
2018-11-29T02:50:49.504Z,17.73
2018-11-29T02:53:17.969Z,18.30
2018-11-29T02:55:46.415Z,19.10
2018-11-29T02:58:14.880Z,18.53
2018-11-29T03:00:43.373Z,17.73
2018-11-29T03:03:11.817Z,18.97
2018-11-29T03:05:40.531Z,19.50
2018-11-29T03:08:09.068Z,19.50
2018-11-29T03:10:37.524Z,19.57
2018-11-29T03:13:06.009Z,17.87
2018-11-29T03:15:34.502Z,19.23
2018-11-29T03:18:02.979Z,17.57
2018-11-29T03:20:31.446Z,17.20
2018-11-29T03:22:59.896Z,16.43
2018-11-29T03:25:28.344Z,17.00
2018-11-29T03:27:56.825Z,17.73
2018-11-29T03:30:25.285Z,19.73
2018-11-29T03:32:53.751Z,18.73
2018-11-29T03:35:22.216Z,19.27
2018-11-29T03:37:50.703Z,19.70
2018-11-29T03:40:19.152Z,17.63
2018-11-29T03:42:47.621Z,20.03
2018-11-29T03:45:16.212Z,19.57
2018-11-29T03:47:44.824Z,20.17
2018-11-29T03:50:14.656Z,18.53
2018-11-29T03:52:43.095Z,16.83
2018-11-29T03:55:11.548Z,19.60
2018-11-29T03:57:40.183Z,19.90
2018-11-29T04:00:15.637Z,19.47
2018-11-29T04:02:44.476Z,19.67
2018-11-29T04:05:13.097Z,17.73
2018-11-29T04:07:41.553Z,20.83
2018-11-29T04:10:10.652Z,19.30
2018-11-29T04:12:39.129Z,19.00
2018-11-29T04:15:08.137Z,18.73
2018-11-29T04:17:40.650Z,18.57
2018-11-29T04:20:06.704Z,22.03
2018-11-29T04:22:35.161Z,19.60
2018-11-29T04:25:03.623Z,19.63
2018-11-29T04:27:32.086Z,20.87
2018-11-29T04:30:00.550Z,22.03
2018-11-29T04:32:29.088Z,21.43
2018-11-29T04:34:57.532Z,20.20
2018-11-29T04:37:26.233Z,20.30
2018-11-29T04:39:54.792Z,22.23
2018-11-29T04:42:23.450Z,21.90
2018-11-29T04:44:51.910Z,22.10
2018-11-29T04:47:20.372Z,23.03
2018-11-29T04:49:48.833Z,21.17
2018-11-29T04:52:17.296Z,22.73
2018-11-29T04:54:45.774Z,21.87
2018-11-29T04:57:17.227Z,21.37
2018-11-29T04:59:46.628Z,21.73
2018-11-29T05:02:15.097Z,22.47
2018-11-29T05:04:43.556Z,24.67
2018-11-29T05:07:12.048Z,22.00
2018-11-29T05:09:40.753Z,24.13
2018-11-29T05:12:09.312Z,23.53
2018-11-29T05:14:37.776Z,25.17
2018-11-29T05:17:06.229Z,25.90
2018-11-29T05:19:34.700Z,26.27
2018-11-29T05:22:03.173Z,26.83
2018-11-29T05:24:31.646Z,25.00
2018-11-29T05:27:00.094Z,24.43
2018-11-29T05:29:28.544Z,26.03
2018-11-29T05:31:56.995Z,27.10
2018-11-29T05:34:25.454Z,28.00
2018-11-29T05:36:53.909Z,26.07
2018-11-29T05:39:22.352Z,26.90
2018-11-29T05:41:50.814Z,26.47
2018-11-29T05:44:19.279Z,26.53
2018-11-29T05:46:47.757Z,27.30
2018-11-29T05:49:16.212Z,25.70
2018-11-29T05:51:44.677Z,25.57
2018-11-29T05:54:13.129Z,26.37
2018-11-29T05:56:41.585Z,26.83
2018-11-29T05:59:10.048Z,28.53
2018-11-29T06:01:40.710Z,24.73
2018-11-29T06:04:09.272Z,30.10
2018-11-29T06:06:37.733Z,28.20
2018-11-29T06:09:08.081Z,29.03
2018-11-29T06:11:37.905Z,27.37
2018-11-29T06:14:06.912Z,29.70
2018-11-29T06:16:35.973Z,27.03
2018-11-29T06:19:05.162Z,30.07
2018-11-29T06:21:33.643Z,27.87
2018-11-29T06:24:02.423Z,25.83
2018-11-29T06:26:30.960Z,28.93
2018-11-29T06:28:59.429Z,27.97
2018-11-29T06:31:27.878Z,31.17
2018-11-29T06:33:56.324Z,31.37
2018-11-29T06:36:24.805Z,25.73
2018-11-29T06:38:53.264Z,26.23
2018-11-29T06:41:21.720Z,39.58
2018-11-29T06:43:50.183Z,30.87
2018-11-29T06:46:18.629Z,28.97
2018-11-29T06:48:47.083Z,30.00
2018-11-29T06:51:15.603Z,27.90
2018-11-29T06:53:49.525Z,28.67
2018-11-29T06:56:17.980Z,29.43
2018-11-29T06:58:46.429Z,28.60
2018-11-29T07:01:14.888Z,30.20
2018-11-29T07:03:43.395Z,29.10
2018-11-29T07:06:11.790Z,31.00
2018-11-29T07:08:40.247Z,29.47
2018-11-29T07:11:08.709Z,31.20
2018-11-29T07:13:37.161Z,28.73
2018-11-29T07:16:05.778Z,30.43
2018-11-29T07:18:34.311Z,32.63
2018-11-29T07:21:08.271Z,28.07
2018-11-29T07:23:37.009Z,30.87
2018-11-29T07:26:05.849Z,32.10
2018-11-29T07:28:34.573Z,27.43
2018-11-29T07:31:03.226Z,33.50
2018-11-29T07:33:31.942Z,30.67
2018-11-29T07:36:00.482Z,31.57
2018-11-29T07:38:28.977Z,33.47
2018-11-29T07:40:57.444Z,32.00
2018-11-29T07:43:26.174Z,31.17
2018-11-29T07:45:54.744Z,32.87
2018-11-29T07:48:23.206Z,30.10
2018-11-29T07:50:51.665Z,31.33
2018-11-29T07:53:20.397Z,30.83
2018-11-29T07:55:49.756Z,31.47
2018-11-29T07:58:18.464Z,31.00
2018-11-29T08:00:47.281Z,30.87
2018-11-29T08:03:16.069Z,30.17
2018-11-29T08:05:44.624Z,30.50
2018-11-29T08:08:13.103Z,32.27
2018-11-29T08:10:41.581Z,33.67
2018-11-29T08:13:10.040Z,30.10
2018-11-29T08:15:39.017Z,30.57
2018-11-29T08:18:06.976Z,31.13
2018-11-29T08:20:35.448Z,31.53
2018-11-29T08:23:04.217Z,29.83
2018-11-29T08:25:33.021Z,28.83
2018-11-29T08:28:01.820Z,27.53
2018-11-29T08:30:30.651Z,29.03
2018-11-29T08:32:59.233Z,27.87
2018-11-29T08:35:27.940Z,26.27
2018-11-29T08:37:56.749Z,28.03
2018-11-29T08:40:25.608Z,27.73
2018-11-29T08:42:54.092Z,26.60
2018-11-29T08:45:26.013Z,27.10
2018-11-29T08:47:54.785Z,27.90
2018-11-29T08:50:23.771Z,27.67
2018-11-29T08:52:52.329Z,26.60
2018-11-29T08:55:20.805Z,26.97
2018-11-29T08:57:49.280Z,26.07
2018-11-29T09:00:19.124Z,26.37
2018-11-29T09:02:47.873Z,25.73
2018-11-29T09:05:16.381Z,27.73
2018-11-29T09:07:45.385Z,26.03
2018-11-29T09:10:15.317Z,24.17
2018-11-29T09:12:43.882Z,25.70
2018-11-29T09:15:12.892Z,28.13
2018-11-29T09:17:41.387Z,27.60
2018-11-29T09:20:12.219Z,27.00
2018-11-29T09:22:41.137Z,26.57
2018-11-29T09:25:11.325Z,25.37
2018-11-29T09:27:40.145Z,29.23
2018-11-29T09:30:15.240Z,25.57
2018-11-29T09:32:44.025Z,27.87
2018-11-29T09:35:12.525Z,24.77
2018-11-29T09:37:55.900Z,25.57
2018-11-29T09:40:24.475Z,23.33
2018-11-29T09:42:53.491Z,24.30
2018-11-29T09:45:22.450Z,26.30
2018-11-29T09:47:56.289Z,24.40
2018-11-29T09:50:25.886Z,23.77
2018-11-29T09:52:54.467Z,22.37
2018-11-29T09:55:22.957Z,23.37
2018-11-29T09:57:51.462Z,21.37
2018-11-29T10:00:27.684Z,21.43
2018-11-29T10:02:54.203Z,21.67
2018-11-29T10:05:22.780Z,21.73
2018-11-29T10:07:51.242Z,20.93
2018-11-29T10:10:19.733Z,21.23
2018-11-29T10:12:48.272Z,20.80
2018-11-29T10:15:16.805Z,21.27
2018-11-29T10:17:45.320Z,20.90
2018-11-29T10:20:14.040Z,21.57
2018-11-29T10:22:47.764Z,22.07
2018-11-29T10:25:16.269Z,21.83
2018-11-29T10:27:48.651Z,22.23
2018-11-29T10:30:18.759Z,19.53
2018-11-29T10:32:47.303Z,19.73
2018-11-29T10:35:16.046Z,21.27
2018-11-29T10:37:44.624Z,19.87
2018-11-29T10:40:13.103Z,17.70
2018-11-29T10:42:41.645Z,21.23
2018-11-29T10:45:11.665Z,20.93
2018-11-29T10:47:40.908Z,20.03
2018-11-29T10:50:10.776Z,18.47
2018-11-29T10:52:39.424Z,18.37
2018-11-29T10:55:14.424Z,17.57
2018-11-29T10:57:43.105Z,17.20
2018-11-29T11:00:20.936Z,18.00
2018-11-29T11:02:55.120Z,18.40
2018-11-29T11:05:23.601Z,21.07
2018-11-29T11:07:52.299Z,18.37
2018-11-29T11:10:21.192Z,17.73
2018-11-29T11:12:49.882Z,18.83
2018-11-29T11:15:18.739Z,17.83
2018-11-29T11:17:47.737Z,19.43
2018-11-29T11:20:16.521Z,17.77
2018-11-29T11:22:45.186Z,16.97
2018-11-29T11:25:13.659Z,17.03
2018-11-29T11:27:42.135Z,17.80
2018-11-29T11:30:12.304Z,17.07
2018-11-29T11:32:40.882Z,19.20
2018-11-29T11:35:09.672Z,18.70
2018-11-29T11:37:38.457Z,18.93
2018-11-29T11:40:08.049Z,15.57
2018-11-29T11:42:36.861Z,19.60
2018-11-29T11:45:08.901Z,18.05
2018-11-29T11:47:37.469Z,17.47
2018-11-29T11:50:21.313Z,17.97
2018-11-29T11:52:50.161Z,16.83
2018-11-29T11:55:19.345Z,17.57
2018-11-29T11:57:47.391Z,19.87
2018-11-29T12:00:23.157Z,17.43
2018-11-29T12:02:52.457Z,17.10
2018-11-29T12:05:21.013Z,16.53
2018-11-29T12:07:49.526Z,18.37
2018-11-29T12:10:18.019Z,19.60
2018-11-29T12:12:46.590Z,18.33
2018-11-29T12:15:15.322Z,17.93
2018-11-29T12:17:44.305Z,19.33
2018-11-29T12:20:15.213Z,18.13
2018-11-29T12:22:43.966Z,16.27
2018-11-29T12:25:14.504Z,18.27
2018-11-29T12:27:43.053Z,16.80
2018-11-29T12:30:14.051Z,16.67
2018-11-29T12:32:42.826Z,18.33
2018-11-29T12:35:11.397Z,18.83
2018-11-29T12:37:39.895Z,18.17
2018-11-29T12:40:09.328Z,18.80
2018-11-29T12:42:37.818Z,17.47
2018-11-29T12:45:09.934Z,18.40
2018-11-29T12:47:38.560Z,17.57
2018-11-29T12:50:09.176Z,17.20
2018-11-29T12:52:37.761Z,19.03
2018-11-29T12:55:06.640Z,17.37
2018-11-29T12:57:35.142Z,17.83
2018-11-29T13:00:04.665Z,17.77
2018-11-29T13:02:33.434Z,15.90
2018-11-29T13:05:02.229Z,16.30
2018-11-29T13:07:31.062Z,17.03
2018-11-29T13:09:59.618Z,16.63
2018-11-29T13:12:28.176Z,16.83
2018-11-29T13:14:56.742Z,15.13
2018-11-29T13:17:25.628Z,18.57
2018-11-29T13:19:54.422Z,16.03
2018-11-29T13:22:23.048Z,16.67
2018-11-29T13:24:51.568Z,16.77
2018-11-29T13:27:20.304Z,17.47
2018-11-29T13:29:49.171Z,17.20
2018-11-29T13:32:17.715Z,17.77
2018-11-29T13:34:46.457Z,15.83
2018-11-29T13:37:15.321Z,17.50
2018-11-29T13:39:44.092Z,16.93
2018-11-29T13:42:12.749Z,16.10
2018-11-29T13:44:41.642Z,16.97
2018-11-29T13:47:10.495Z,16.90
2018-11-29T13:49:39.307Z,16.47
2018-11-29T13:52:08.169Z,17.37
2018-11-29T13:54:36.748Z,16.20
2018-11-29T13:57:05.586Z,15.87
2018-11-29T13:59:34.316Z,16.13
2018-11-29T14:02:03.289Z,15.70
2018-11-29T14:04:32.093Z,16.13
2018-11-29T14:07:00.693Z,16.50
2018-11-29T14:09:29.397Z,15.80
2018-11-29T14:11:58.279Z,15.17
2018-11-29T14:14:27.100Z,14.43
2018-11-29T14:16:55.942Z,16.87
2018-11-29T14:19:24.465Z,15.27
2018-11-29T14:21:58.253Z,15.37
2018-11-29T14:24:26.816Z,16.70
2018-11-29T14:26:55.534Z,15.33
2018-11-29T14:29:24.204Z,14.43
2018-11-29T14:31:52.767Z,15.43
2018-11-29T14:34:21.265Z,14.63
2018-11-29T14:36:49.736Z,14.23
2018-11-29T14:39:19.290Z,15.30
2018-11-29T14:41:47.925Z,15.83
2018-11-29T14:44:16.411Z,15.33
2018-11-29T14:46:45.124Z,14.43
2018-11-29T14:49:13.936Z,16.43
2018-11-29T14:51:48.019Z,13.60
2018-11-29T14:54:11.571Z,14.73
2018-11-29T14:56:40.401Z,13.47
2018-11-29T14:59:09.226Z,15.53
2018-11-29T15:01:37.824Z,14.30
2018-11-29T15:04:06.552Z,13.73
2018-11-29T15:06:35.373Z,14.03
2018-11-29T15:09:05.372Z,12.33
2018-11-29T15:11:33.803Z,12.43
2018-11-29T15:14:02.579Z,12.63
2018-11-29T15:16:31.172Z,11.83
2018-11-29T15:19:00.030Z,13.53
2018-11-29T15:21:28.854Z,12.27
2018-11-29T15:23:58.105Z,11.60
2018-11-29T15:26:26.893Z,13.80
2018-11-29T15:28:55.525Z,14.13
2018-11-29T15:31:24.414Z,13.33
2018-11-29T15:33:52.956Z,12.47
2018-11-29T15:36:21.444Z,12.33
2018-11-29T15:38:50.159Z,13.57
2018-11-29T15:41:18.781Z,11.13
2018-11-29T15:43:47.280Z,11.90
2018-11-29T15:46:15.824Z,13.27
2018-11-29T15:48:44.357Z,12.80
2018-11-29T15:51:12.890Z,12.23
2018-11-29T15:53:41.593Z,11.57
2018-11-29T15:56:10.363Z,11.23
2018-11-29T15:58:39.451Z,12.93
2018-11-29T16:01:08.357Z,11.87
2018-11-29T16:03:37.071Z,12.27
2018-11-29T16:06:05.564Z,12.70
2018-11-29T16:08:34.027Z,12.80
2018-11-29T16:11:02.513Z,12.40
2018-11-29T16:13:30.999Z,11.03
2018-11-29T16:15:59.468Z,11.80
2018-11-29T16:18:27.945Z,11.90
2018-11-29T16:20:56.443Z,12.10
2018-11-29T16:23:25.154Z,11.53
2018-11-29T16:25:53.701Z,10.90
2018-11-29T16:28:22.172Z,11.57
2018-11-29T16:30:51.665Z,9.83
2018-11-29T16:33:22.827Z,10.57
2018-11-29T16:35:51.324Z,11.40
2018-11-29T16:38:19.825Z,12.03
2018-11-29T16:40:48.309Z,10.00
2018-11-29T16:43:16.803Z,11.07
2018-11-29T16:45:45.268Z,11.23
2018-11-29T16:48:13.752Z,10.70
2018-11-29T16:50:42.733Z,9.80
2018-11-29T16:53:11.480Z,10.53
2018-11-29T16:55:39.940Z,10.40
2018-11-29T16:58:10.364Z,11.70
2018-11-29T17:00:38.955Z,10.80
2018-11-29T17:03:07.416Z,9.97
2018-11-29T17:05:36.145Z,11.03
2018-11-29T17:08:04.852Z,10.67
2018-11-29T17:10:33.311Z,9.30
2018-11-29T17:13:02.943Z,10.33
2018-11-29T17:15:31.410Z,9.77
2018-11-29T17:18:00.141Z,10.80
2018-11-29T17:20:28.963Z,9.80
2018-11-29T17:22:57.508Z,10.47
2018-11-29T17:25:26.224Z,9.33
2018-11-29T17:27:54.788Z,9.63
2018-11-29T17:30:23.603Z,9.27
2018-11-29T17:32:54.293Z,9.60
2018-11-29T17:35:22.888Z,9.53
2018-11-29T17:37:52.172Z,8.83
2018-11-29T17:40:21.089Z,10.00
2018-11-29T17:42:50.769Z,10.27
2018-11-29T17:45:20.903Z,10.07
2018-11-29T17:47:50.083Z,9.23
2018-11-29T17:50:21.057Z,9.70
2018-11-29T17:52:49.611Z,9.13
2018-11-29T17:55:18.082Z,9.43
2018-11-29T17:57:46.556Z,10.07
2018-11-29T18:00:16.749Z,9.13
2018-11-29T18:02:45.467Z,8.80
2018-11-29T18:05:13.947Z,8.87
2018-11-29T18:07:42.425Z,9.73
2018-11-29T18:10:13.505Z,9.40
2018-11-29T18:12:42.324Z,10.00
2018-11-29T18:15:14.992Z,9.53
2018-11-29T18:17:43.572Z,8.67
2018-11-29T18:20:12.302Z,9.70
2018-11-29T18:22:40.818Z,12.57
2018-11-29T18:25:11.893Z,10.20
2018-11-29T18:27:42.388Z,9.43
2018-11-29T18:30:11.554Z,8.73
2018-11-29T18:32:45.088Z,8.97
2018-11-29T18:35:13.848Z,10.20
2018-11-29T18:37:42.444Z,10.40
2018-11-29T18:40:14.145Z,9.17
2018-11-29T18:42:42.749Z,9.50
2018-11-29T18:45:13.712Z,10.27
2018-11-29T18:47:43.044Z,9.53
2018-11-29T18:50:13.117Z,10.60
2018-11-29T18:52:41.577Z,10.50
2018-11-29T18:55:10.237Z,10.20
2018-11-29T18:57:38.732Z,10.37
2018-11-29T19:00:10.784Z,10.23
2018-11-29T19:02:39.291Z,10.13
2018-11-29T19:05:07.993Z,11.47
2018-11-29T19:07:36.546Z,11.17
2018-11-29T19:10:09.425Z,11.53
2018-11-29T19:12:38.737Z,10.87
2018-11-29T19:15:08.622Z,11.70
2018-11-29T19:17:37.132Z,11.33
2018-11-29T19:20:07.987Z,10.75
2018-11-29T19:22:36.537Z,11.23
2018-11-29T19:25:07.249Z,10.73
2018-11-29T19:27:35.703Z,10.40
2018-11-29T19:30:05.151Z,10.77
2018-11-29T19:32:33.700Z,11.50
2018-11-29T19:35:02.168Z,10.70
2018-11-29T19:37:30.632Z,11.37
2018-11-29T19:39:59.336Z,9.97
2018-11-29T19:42:27.915Z,11.20
2018-11-29T19:44:56.644Z,11.63
2018-11-29T19:47:25.284Z,10.97
2018-11-29T19:49:53.674Z,11.00
2018-11-29T19:52:22.130Z,11.30
2018-11-29T19:54:50.605Z,12.00
2018-11-29T19:57:19.326Z,11.90
2018-11-29T19:59:47.856Z,9.87
2018-11-29T20:02:16.643Z,10.87
2018-11-29T20:04:45.152Z,9.67
2018-11-29T20:07:13.605Z,12.53
2018-11-29T20:09:42.077Z,11.27
2018-11-29T20:12:10.537Z,10.03
2018-11-29T20:14:39.011Z,11.43
2018-11-29T20:17:07.477Z,10.80
2018-11-29T20:19:35.934Z,10.07
2018-11-29T20:22:04.436Z,10.90
2018-11-29T20:24:32.941Z,11.13
2018-11-29T20:27:01.356Z,10.20
2018-11-29T20:29:29.817Z,10.53
2018-11-29T20:31:58.301Z,11.27
2018-11-29T20:34:26.757Z,10.77
2018-11-29T20:36:55.211Z,11.80
2018-11-29T20:39:23.733Z,8.70
2018-11-29T20:41:52.188Z,10.67
2018-11-29T20:44:20.640Z,11.90
2018-11-29T20:46:49.116Z,10.40
2018-11-29T20:49:17.575Z,10.47
2018-11-29T20:51:46.041Z,10.73
2018-11-29T20:54:14.512Z,11.20
2018-11-29T20:56:43.209Z,10.60
2018-11-29T20:59:11.752Z,11.10
2018-11-29T21:01:40.233Z,10.23
2018-11-29T21:04:08.681Z,9.77
2018-11-29T21:06:37.134Z,10.00
2018-11-29T21:09:07.305Z,9.77
2018-11-29T21:11:35.764Z,9.83
2018-11-29T21:14:04.481Z,9.97
2018-11-29T21:16:33.040Z,9.67
2018-11-29T21:19:01.490Z,9.00
2018-11-29T21:21:30.603Z,8.13
2018-11-29T21:23:58.413Z,9.30
2018-11-29T21:26:27.113Z,9.97
2018-11-29T21:28:55.648Z,10.70
2018-11-29T21:31:24.124Z,10.20
2018-11-29T21:33:52.585Z,9.47
2018-11-29T21:36:21.032Z,9.80
2018-11-29T21:38:49.512Z,10.30
2018-11-29T21:41:18.018Z,9.10
2018-11-29T21:43:46.469Z,9.83
2018-11-29T21:46:14.945Z,9.03
2018-11-29T21:48:43.412Z,9.33
2018-11-29T21:51:11.904Z,8.73
2018-11-29T21:53:40.626Z,9.20
2018-11-29T21:56:09.157Z,9.13
2018-11-29T21:58:37.615Z,9.63
2018-11-29T22:01:06.094Z,9.97
2018-11-29T22:03:34.796Z,9.20
2018-11-29T22:06:03.324Z,9.90
2018-11-29T22:08:31.794Z,10.23
2018-11-29T22:11:00.252Z,10.33
2018-11-29T22:13:28.716Z,9.03
2018-11-29T22:15:57.267Z,9.63
2018-11-29T22:18:25.739Z,10.50
2018-11-29T22:20:55.653Z,8.87
2018-11-29T22:23:24.121Z,8.97
2018-11-29T22:25:53.026Z,8.87
2018-11-29T22:28:21.739Z,10.10
2018-11-29T22:30:50.549Z,10.00
2018-11-29T22:33:19.342Z,9.27
2018-11-29T22:35:47.902Z,10.87
2018-11-29T22:38:16.600Z,9.23
2018-11-29T22:40:45.161Z,10.13
2018-11-29T22:43:13.594Z,8.33
2018-11-29T22:45:42.061Z,11.03
2018-11-29T22:48:10.759Z,9.67
2018-11-29T22:50:39.321Z,10.13
2018-11-29T22:53:07.784Z,10.03
2018-11-29T22:55:36.488Z,9.20
2018-11-29T22:58:05.136Z,9.47
2018-11-29T23:00:38.976Z,9.97
2018-11-29T23:03:07.416Z,9.87
2018-11-29T23:05:35.881Z,10.30
2018-11-29T23:08:04.359Z,9.43
2018-11-29T23:10:33.068Z,11.23
2018-11-29T23:13:01.604Z,9.93
2018-11-29T23:15:30.075Z,10.30
2018-11-29T23:17:58.528Z,10.60
2018-11-29T23:20:26.981Z,10.73
2018-11-29T23:22:55.444Z,10.13
2018-11-29T23:25:23.901Z,9.50
2018-11-29T23:27:52.347Z,9.77
2018-11-29T23:30:20.810Z,10.50
2018-11-29T23:32:49.309Z,9.57
2018-11-29T23:35:17.708Z,10.37
2018-11-29T23:37:46.186Z,10.27
2018-11-29T23:40:15.031Z,9.87
2018-11-29T23:42:43.601Z,10.00
2018-11-29T23:45:12.355Z,10.10
2018-11-29T23:47:40.811Z,10.53
2018-11-29T23:50:10.917Z,12.13
2018-11-29T23:52:39.419Z,10.53
2018-11-29T23:55:09.572Z,10.23
2018-11-29T23:57:38.026Z,10.43
